createdAt,value
2019-03-05T00:01:04.920Z,1.30
2019-03-05T00:03:34.167Z,1.10
2019-03-05T00:06:03.455Z,1.30
2019-03-05T00:08:33.062Z,1.30
2019-03-05T00:11:02.324Z,1.50
2019-03-05T00:13:33.997Z,1.50
2019-03-05T00:16:03.254Z,1.50
2019-03-05T00:18:32.495Z,1.80
2019-03-05T00:21:01.865Z,1.90
2019-03-05T00:23:49.905Z,1.50
2019-03-05T00:26:21.866Z,1.77
2019-03-05T00:29:06.267Z,1.80
2019-03-05T00:31:37.498Z,1.80
2019-03-05T00:34:43.456Z,2.07
2019-03-05T00:37:44.210Z,2.27
2019-03-05T00:40:36.682Z,2.20
2019-03-05T00:43:12.194Z,2.47
2019-03-05T00:46:10.485Z,2.70
2019-03-05T00:49:29.933Z,2.47
2019-03-05T00:52:09.871Z,2.27
2019-03-05T00:55:17.396Z,1.90
2019-03-05T00:58:29.659Z,2.10
2019-03-05T01:01:11.794Z,2.20
2019-03-05T01:04:03.422Z,2.10
2019-03-05T01:06:33.099Z,2.40
2019-03-05T01:09:02.343Z,2.03
2019-03-05T01:11:31.580Z,2.10
2019-03-05T01:14:01.386Z,2.13
2019-03-05T01:16:32.734Z,2.30
2019-03-05T01:19:01.999Z,2.23
2019-03-05T01:21:31.209Z,2.23
2019-03-05T01:24:00.604Z,2.50
2019-03-05T01:26:29.836Z,2.60
2019-03-05T01:28:59.051Z,2.47
2019-03-05T01:31:50.195Z,2.30
2019-03-05T01:34:24.260Z,2.30
2019-03-05T01:36:57.488Z,1.70
2019-03-05T01:39:34.430Z,2.00
2019-03-05T01:42:03.935Z,1.87
2019-03-05T01:44:33.222Z,1.90
2019-03-05T01:47:02.512Z,1.87
2019-03-05T01:49:31.796Z,1.80
2019-03-05T01:52:01.017Z,1.70
2019-03-05T01:54:30.598Z,1.70
2019-03-05T01:56:59.838Z,1.57
2019-03-05T01:59:29.907Z,1.40
2019-03-05T02:01:59.206Z,1.40
2019-03-05T02:04:30.010Z,1.50
2019-03-05T02:06:59.315Z,1.40
2019-03-05T02:09:28.541Z,1.40
2019-03-05T02:11:57.842Z,1.20
2019-03-05T02:14:27.052Z,0.90
2019-03-05T02:16:56.678Z,1.20
2019-03-05T02:19:38.803Z,0.90
2019-03-05T02:22:11.105Z,0.90
2019-03-05T02:25:25.111Z,0.73
2019-03-05T02:28:24.087Z,0.90
2019-03-05T02:31:27.329Z,0.70
2019-03-05T02:34:21.193Z,0.60
2019-03-05T02:37:09.761Z,0.70
2019-03-05T02:40:17.170Z,0.70
2019-03-05T02:43:17.485Z,0.60
2019-03-05T02:45:59.005Z,0.70
2019-03-05T02:48:49.704Z,0.60
2019-03-05T02:51:36.826Z,0.80
2019-03-05T02:55:05.504Z,0.70
2019-03-05T02:57:33.325Z,0.60
2019-03-05T03:00:02.641Z,0.80
2019-03-05T03:02:45.951Z,0.57
2019-03-05T03:05:34.348Z,0.80
2019-03-05T03:08:03.415Z,0.90
2019-03-05T03:10:32.687Z,0.70
2019-03-05T03:13:03.229Z,0.93
2019-03-05T03:15:32.448Z,1.07
2019-03-05T03:18:02.011Z,1.00
2019-03-05T03:20:31.236Z,1.20
2019-03-05T03:23:00.481Z,0.70
2019-03-05T03:25:29.702Z,1.10
2019-03-05T03:27:59.270Z,1.23
2019-03-05T03:30:30.539Z,1.10
2019-03-05T03:32:59.796Z,0.83
2019-03-05T03:35:30.689Z,0.80
2019-03-05T03:37:59.941Z,1.00
2019-03-05T03:40:29.158Z,0.93
2019-03-05T03:42:58.603Z,0.97
2019-03-05T03:45:28.369Z,1.13
2019-03-05T03:47:57.621Z,1.20
2019-03-05T03:50:26.887Z,0.90
2019-03-05T03:52:56.194Z,1.30
2019-03-05T03:55:25.713Z,0.80
2019-03-05T03:57:54.952Z,1.13
2019-03-05T04:00:25.354Z,1.20
2019-03-05T04:02:55.583Z,0.90
2019-03-05T04:05:25.447Z,1.10
2019-03-05T04:07:54.711Z,1.10
2019-03-05T04:10:23.962Z,1.10
2019-03-05T04:12:53.490Z,1.00
2019-03-05T04:15:23.993Z,1.30
2019-03-05T04:17:53.307Z,1.00
2019-03-05T04:20:44.525Z,1.00
2019-03-05T04:23:13.758Z,1.17
2019-03-05T04:25:42.986Z,1.50
2019-03-05T04:28:12.231Z,1.07
2019-03-05T04:30:41.451Z,1.03
2019-03-05T04:33:10.692Z,1.20
2019-03-05T04:35:39.917Z,1.30
2019-03-05T04:38:09.162Z,1.20
2019-03-05T04:40:39.302Z,0.90
2019-03-05T04:43:08.577Z,1.10
2019-03-05T04:46:15.453Z,1.27
2019-03-05T04:48:46.386Z,1.10
2019-03-05T04:51:22.911Z,1.60
2019-03-05T04:53:52.155Z,0.90
2019-03-05T04:56:22.563Z,1.00
2019-03-05T04:58:51.808Z,1.00
2019-03-05T05:01:21.027Z,1.00
2019-03-05T05:03:51.980Z,0.90
2019-03-05T05:06:21.997Z,1.50
2019-03-05T05:08:51.438Z,1.40
2019-03-05T05:11:20.698Z,1.10
2019-03-05T05:13:49.980Z,0.90
2019-03-05T05:16:19.194Z,1.17
2019-03-05T05:18:48.522Z,1.00
2019-03-05T05:21:17.758Z,1.17
2019-03-05T05:23:47.347Z,0.70
2019-03-05T05:26:17.830Z,1.00
2019-03-05T05:28:47.346Z,1.20
2019-03-05T05:31:16.710Z,1.00
2019-03-05T05:33:45.971Z,1.13
2019-03-05T05:36:15.368Z,0.80
2019-03-05T05:38:44.578Z,0.70
2019-03-05T05:41:13.818Z,0.93
2019-03-05T05:43:43.045Z,0.60
2019-03-05T05:46:13.399Z,0.90
2019-03-05T05:48:42.734Z,0.90
2019-03-05T05:51:11.986Z,1.07
2019-03-05T05:53:42.381Z,1.13
2019-03-05T05:56:11.650Z,0.90
2019-03-05T05:58:43.168Z,0.80
2019-03-05T06:01:13.895Z,0.87
2019-03-05T06:03:44.283Z,0.90
2019-03-05T06:06:13.528Z,0.73
2019-03-05T06:08:42.756Z,1.00
2019-03-05T06:11:13.044Z,1.10
2019-03-05T06:13:42.305Z,0.90
2019-03-05T06:16:11.551Z,0.90
2019-03-05T06:18:42.045Z,0.97
2019-03-05T06:21:11.281Z,1.50
2019-03-05T06:23:40.532Z,2.20
2019-03-05T06:26:12.091Z,2.00
2019-03-05T06:28:41.311Z,1.47
2019-03-05T06:31:10.579Z,1.60
2019-03-05T06:33:42.274Z,2.10
2019-03-05T06:36:11.518Z,2.10
2019-03-05T06:38:41.152Z,2.40
2019-03-05T06:41:10.411Z,15.17
2019-03-05T06:43:41.088Z,14.37
2019-03-05T06:46:10.326Z,4.47
2019-03-05T06:48:39.542Z,2.17
2019-03-05T06:51:08.775Z,1.50
2019-03-05T06:53:37.993Z,1.37
2019-03-05T06:56:07.235Z,1.13
2019-03-05T06:58:36.449Z,1.10
2019-03-05T07:01:07.013Z,0.80
2019-03-05T07:03:36.297Z,1.10
2019-03-05T07:06:41.255Z,1.17
2019-03-05T07:09:21.112Z,1.00
2019-03-05T07:12:15.079Z,1.00
2019-03-05T07:15:20.014Z,1.13
2019-03-05T07:17:53.818Z,1.20
2019-03-05T07:20:46.885Z,1.77
2019-03-05T07:23:27.618Z,1.37
2019-03-05T07:25:56.835Z,2.93
2019-03-05T07:28:26.106Z,1.17
2019-03-05T07:30:55.366Z,1.50
2019-03-05T07:33:24.614Z,1.17
2019-03-05T07:35:53.867Z,1.13
2019-03-05T07:38:23.107Z,1.30
2019-03-05T07:40:53.101Z,1.33
2019-03-05T07:43:22.655Z,1.50
2019-03-05T07:45:51.901Z,1.90
2019-03-05T07:48:21.147Z,1.50
2019-03-05T07:50:50.375Z,1.50
2019-03-05T07:53:19.622Z,1.60
2019-03-05T07:55:48.899Z,1.80
2019-03-05T07:58:18.968Z,1.50
2019-03-05T08:00:48.187Z,1.17
2019-03-05T08:03:17.415Z,1.13
2019-03-05T08:05:49.809Z,1.70
2019-03-05T08:08:54.716Z,1.30
2019-03-05T08:11:25.060Z,1.60
2019-03-05T08:14:38.664Z,1.10
2019-03-05T08:17:08.295Z,1.10
2019-03-05T08:19:37.557Z,1.30
2019-03-05T08:22:08.968Z,1.40
2019-03-05T08:24:38.255Z,1.53
2019-03-05T08:27:07.517Z,1.37
2019-03-05T08:29:37.658Z,1.17
2019-03-05T08:32:06.870Z,1.37
2019-03-05T08:34:36.111Z,1.10
2019-03-05T08:37:05.349Z,1.37
2019-03-05T08:39:34.898Z,1.07
2019-03-05T08:42:04.523Z,1.50
2019-03-05T08:44:33.966Z,1.30
2019-03-05T08:47:04.034Z,1.10
2019-03-05T08:49:33.451Z,1.10
2019-03-05T08:52:03.449Z,1.10
2019-03-05T08:54:32.715Z,1.10
2019-03-05T08:57:01.932Z,1.00
2019-03-05T08:59:32.662Z,0.97
2019-03-05T09:02:02.229Z,1.20
2019-03-05T09:04:31.469Z,1.20
2019-03-05T09:07:00.710Z,0.90
2019-03-05T09:09:30.374Z,1.00
2019-03-05T09:11:59.832Z,1.00
2019-03-05T09:14:31.311Z,1.20
2019-03-05T09:17:00.528Z,1.20
2019-03-05T09:19:30.157Z,1.10
2019-03-05T09:21:59.380Z,1.10
2019-03-05T09:24:28.629Z,1.20
2019-03-05T09:26:57.848Z,1.10
2019-03-05T09:29:27.132Z,1.10
2019-03-05T09:31:56.370Z,1.10
2019-03-05T09:34:25.845Z,1.43
2019-03-05T09:36:55.116Z,1.13
2019-03-05T09:39:24.377Z,1.30
2019-03-05T09:41:53.632Z,1.40
2019-03-05T09:44:24.804Z,2.93
2019-03-05T09:46:54.069Z,2.47
2019-03-05T09:49:23.309Z,1.60
2019-03-05T09:51:52.597Z,1.50
2019-03-05T09:54:21.849Z,1.20
2019-03-05T09:56:51.063Z,1.20
2019-03-05T09:59:20.291Z,0.90
2019-03-05T10:01:53.760Z,1.37
2019-03-05T10:04:23.497Z,1.20
2019-03-05T10:06:52.709Z,2.23
2019-03-05T10:09:25.861Z,1.20
2019-03-05T10:11:56.816Z,1.97
2019-03-05T10:14:25.963Z,1.73
2019-03-05T10:16:55.192Z,0.90
2019-03-05T10:19:24.447Z,1.40
2019-03-05T10:21:53.665Z,1.20
2019-03-05T10:24:22.925Z,1.17
2019-03-05T10:26:52.467Z,0.90
2019-03-05T10:29:21.955Z,1.10
2019-03-05T10:31:51.471Z,0.87
2019-03-05T10:34:20.720Z,0.70
2019-03-05T10:36:54.474Z,1.07
2019-03-05T10:39:30.915Z,1.17
2019-03-05T10:41:57.832Z,0.90
2019-03-05T10:44:27.874Z,1.10
2019-03-05T10:46:58.346Z,0.93
2019-03-05T10:49:27.920Z,0.80
2019-03-05T10:51:58.920Z,0.90
2019-03-05T10:54:28.174Z,0.80
2019-03-05T10:56:57.439Z,0.67
2019-03-05T10:59:27.419Z,0.90
2019-03-05T11:01:57.819Z,0.70
2019-03-05T11:04:27.044Z,0.90
2019-03-05T11:06:56.773Z,0.70
2019-03-05T11:09:33.124Z,0.70
2019-03-05T11:12:03.456Z,0.63
2019-03-05T11:14:35.676Z,0.80
2019-03-05T11:17:05.031Z,0.80
2019-03-05T11:19:34.464Z,0.80
2019-03-05T11:22:03.749Z,0.80
2019-03-05T11:24:32.974Z,0.50
2019-03-05T11:27:03.437Z,0.47
2019-03-05T11:29:32.686Z,0.73
2019-03-05T11:32:03.457Z,0.60
2019-03-05T11:34:32.752Z,0.67
2019-03-05T11:37:02.009Z,0.70
2019-03-05T11:39:31.242Z,0.60
2019-03-05T11:42:00.484Z,0.70
2019-03-05T11:44:29.704Z,0.60
2019-03-05T11:46:58.961Z,0.67
2019-03-05T11:49:28.200Z,0.60
2019-03-05T11:51:59.344Z,0.50
2019-03-05T11:54:28.605Z,0.73
2019-03-05T11:56:57.857Z,0.60
2019-03-05T11:59:27.308Z,0.67
2019-03-05T12:01:56.562Z,0.53
2019-03-05T12:04:26.113Z,0.70
2019-03-05T12:06:57.957Z,0.70
2019-03-05T12:09:27.473Z,0.60
2019-03-05T12:11:56.838Z,0.70
2019-03-05T12:14:26.417Z,0.70
2019-03-05T12:16:56.018Z,0.73
2019-03-05T12:19:25.256Z,0.50
2019-03-05T12:21:54.502Z,0.70
2019-03-05T12:24:24.319Z,0.57
2019-03-05T12:26:54.823Z,0.57
2019-03-05T12:29:24.053Z,0.40
2019-03-05T12:31:53.303Z,0.80
2019-03-05T12:34:23.813Z,0.70
2019-03-05T12:36:54.678Z,0.57
2019-03-05T12:39:23.915Z,0.60
2019-03-05T12:41:53.209Z,0.90
2019-03-05T12:44:22.802Z,0.80
2019-03-05T12:46:52.068Z,0.80
2019-03-05T12:49:21.308Z,0.90
2019-03-05T12:51:50.560Z,0.60
2019-03-05T12:54:19.801Z,0.50
2019-03-05T12:56:50.274Z,0.80
2019-03-05T12:59:19.491Z,0.63
2019-03-05T13:01:48.747Z,0.50
2019-03-05T13:04:17.991Z,0.80
2019-03-05T13:06:47.218Z,0.70
2019-03-05T13:09:19.549Z,0.60
2019-03-05T13:11:49.822Z,0.60
2019-03-05T13:14:20.114Z,0.60
2019-03-05T13:16:50.768Z,0.70
2019-03-05T13:19:21.597Z,0.93
2019-03-05T13:21:50.819Z,0.70
2019-03-05T13:24:20.078Z,0.97
2019-03-05T13:26:49.290Z,0.77
2019-03-05T13:29:20.528Z,0.80
2019-03-05T13:31:49.915Z,0.67
2019-03-05T13:34:19.161Z,0.70
2019-03-05T13:36:50.656Z,0.80
2019-03-05T13:39:22.303Z,0.87
2019-03-05T13:41:53.830Z,0.83
2019-03-05T13:44:34.934Z,0.80
2019-03-05T13:47:06.337Z,0.97
2019-03-05T13:50:08.487Z,0.80
2019-03-05T13:53:14.753Z,0.70
2019-03-05T13:56:44.694Z,0.53
2019-03-05T13:59:35.475Z,0.70
2019-03-05T14:02:06.354Z,1.17
2019-03-05T14:04:57.284Z,0.60
2019-03-05T14:08:07.684Z,0.83
2019-03-05T14:10:36.909Z,1.30
2019-03-05T14:13:06.191Z,1.00
2019-03-05T14:15:36.243Z,0.90
2019-03-05T14:18:08.593Z,1.03
2019-03-05T14:20:38.195Z,1.03
2019-03-05T14:23:07.466Z,1.10
2019-03-05T14:25:36.878Z,2.10
2019-03-05T14:28:06.138Z,2.00
2019-03-05T14:30:35.778Z,1.53
2019-03-05T14:33:08.596Z,1.03
2019-03-05T14:35:37.985Z,1.00
2019-03-05T14:38:08.715Z,1.00
2019-03-05T14:40:38.410Z,1.10
2019-03-05T14:43:09.354Z,1.13
2019-03-05T14:45:38.905Z,1.10
2019-03-05T14:48:08.139Z,1.17
2019-03-05T14:50:37.982Z,1.00
2019-03-05T14:53:08.417Z,1.00
2019-03-05T14:55:37.685Z,1.10
2019-03-05T14:58:06.906Z,1.00
2019-03-05T15:00:36.181Z,1.23
2019-03-05T15:03:05.392Z,0.93
2019-03-05T15:05:35.454Z,0.97
2019-03-05T15:08:05.369Z,1.40
2019-03-05T15:10:35.149Z,1.40
2019-03-05T15:13:15.301Z,1.10
2019-03-05T15:15:35.399Z,1.10
2019-03-05T15:18:05.340Z,1.00
2019-03-05T15:20:34.760Z,1.03
2019-03-05T15:23:06.415Z,1.07
2019-03-05T15:25:35.791Z,1.07
2019-03-05T15:28:05.023Z,6.60
2019-03-05T15:30:34.737Z,4.60
2019-03-05T15:33:04.017Z,4.30
2019-03-05T15:35:33.261Z,3.93
2019-03-05T15:38:02.732Z,2.53
2019-03-05T15:40:32.501Z,5.67
2019-03-05T15:43:01.729Z,2.67
2019-03-05T15:45:30.985Z,2.60
2019-03-05T15:48:00.293Z,2.27
2019-03-05T15:50:30.090Z,1.60
2019-03-05T15:52:59.372Z,1.30
2019-03-05T15:55:29.780Z,1.37
2019-03-05T15:57:59.032Z,1.80
2019-03-05T16:00:30.148Z,1.53
2019-03-05T16:02:59.863Z,2.13
2019-03-05T16:05:29.555Z,1.63
2019-03-05T16:08:01.071Z,1.50
2019-03-05T16:10:29.742Z,1.83
2019-03-05T16:12:59.310Z,1.97
2019-03-05T16:15:28.581Z,1.77
2019-03-05T16:18:01.264Z,1.83
2019-03-05T16:20:30.060Z,1.63
2019-03-05T16:22:59.296Z,1.73
2019-03-05T16:25:31.146Z,2.00
2019-03-05T16:28:02.303Z,1.90
2019-03-05T16:31:00.083Z,1.90
2019-03-05T16:33:48.273Z,1.77
2019-03-05T16:36:30.809Z,1.73
2019-03-05T16:39:31.183Z,2.03
2019-03-05T16:42:20.602Z,2.10
2019-03-05T16:45:08.782Z,1.60
2019-03-05T16:48:00.264Z,1.60
2019-03-05T16:50:41.027Z,1.67
2019-03-05T16:53:27.832Z,1.90
2019-03-05T16:56:14.812Z,1.90
2019-03-05T16:59:18.216Z,2.10
2019-03-05T17:01:59.617Z,1.93
2019-03-05T17:05:02.951Z,2.00
2019-03-05T17:07:46.903Z,2.20
2019-03-05T17:10:38.039Z,2.30
2019-03-05T17:13:07.331Z,2.20
2019-03-05T17:15:36.551Z,1.90
2019-03-05T17:18:07.265Z,2.20
2019-03-05T17:20:36.490Z,2.13
2019-03-05T17:23:06.688Z,3.33
2019-03-05T17:25:35.906Z,2.60
2019-03-05T17:28:05.178Z,4.80
2019-03-05T17:30:34.395Z,6.93
2019-03-05T17:33:03.693Z,4.10
2019-03-05T17:35:33.306Z,4.60
2019-03-05T17:38:03.937Z,3.67
2019-03-05T17:40:33.165Z,5.27
2019-03-05T17:43:02.817Z,5.30
2019-03-05T17:45:32.086Z,3.40
2019-03-05T17:48:01.473Z,3.03
2019-03-05T17:50:30.688Z,3.17
2019-03-05T17:52:59.927Z,3.13
2019-03-05T17:55:29.176Z,2.07
2019-03-05T17:57:58.809Z,2.57
2019-03-05T18:00:30.362Z,2.20
2019-03-05T18:02:59.598Z,2.10
2019-03-05T18:05:28.841Z,2.00
2019-03-05T18:07:58.196Z,2.00
2019-03-05T18:10:27.712Z,2.40
2019-03-05T18:12:56.980Z,2.10
2019-03-05T18:15:28.971Z,2.30
2019-03-05T18:17:58.309Z,2.30
2019-03-05T18:20:27.537Z,2.40
2019-03-05T18:22:56.812Z,2.43
2019-03-05T18:25:26.084Z,2.40
2019-03-05T18:27:55.396Z,2.93
2019-03-05T18:30:24.877Z,2.80
2019-03-05T18:32:54.121Z,3.17
2019-03-05T18:35:23.605Z,3.20
2019-03-05T18:37:54.472Z,2.50
2019-03-05T18:40:25.815Z,2.40
2019-03-05T18:42:55.239Z,1.97
2019-03-05T18:45:25.641Z,1.70
2019-03-05T18:47:54.873Z,1.53
2019-03-05T18:50:24.449Z,1.40
2019-03-05T18:52:54.506Z,1.13
2019-03-05T18:55:23.982Z,1.20
2019-03-05T18:57:53.443Z,1.30
2019-03-05T19:00:23.646Z,1.13
2019-03-05T19:02:54.258Z,1.30
2019-03-05T19:05:23.904Z,1.40
2019-03-05T19:07:53.507Z,1.20
2019-03-05T19:10:26.152Z,1.40
2019-03-05T19:12:57.352Z,1.30
2019-03-05T19:15:26.731Z,1.50
2019-03-05T19:17:56.079Z,1.60
2019-03-05T19:20:25.356Z,1.40
2019-03-05T19:22:54.782Z,1.57
2019-03-05T19:25:25.984Z,1.60
2019-03-05T19:27:55.217Z,1.40
2019-03-05T19:30:27.362Z,1.70
2019-03-05T19:32:56.861Z,1.40
2019-03-05T19:35:26.103Z,1.43
2019-03-05T19:37:55.338Z,1.50
2019-03-05T19:40:26.926Z,1.30
2019-03-05T19:43:03.372Z,1.63
2019-03-05T19:45:32.994Z,1.40
2019-03-05T19:48:03.359Z,1.50
2019-03-05T19:50:32.597Z,1.40
2019-03-05T19:53:02.076Z,1.40
2019-03-05T19:55:31.532Z,1.40
2019-03-05T19:58:10.792Z,1.67
2019-03-05T20:00:46.978Z,1.53
2019-03-05T20:03:16.228Z,1.77
2019-03-05T20:05:46.805Z,1.90
2019-03-05T20:08:16.056Z,1.80
2019-03-05T20:10:45.303Z,1.80
2019-03-05T20:13:14.912Z,1.73
2019-03-05T20:15:44.183Z,1.87
2019-03-05T20:18:14.662Z,2.00
2019-03-05T20:20:43.866Z,2.03
2019-03-05T20:23:13.442Z,2.10
2019-03-05T20:25:42.729Z,2.20
2019-03-05T20:28:13.450Z,1.90
2019-03-05T20:30:42.731Z,1.90
2019-03-05T20:33:11.981Z,2.00
2019-03-05T20:35:41.227Z,2.07
2019-03-05T20:38:12.711Z,2.20
2019-03-05T20:40:41.961Z,2.37
2019-03-05T20:43:11.173Z,2.30
2019-03-05T20:45:40.447Z,2.20
2019-03-05T20:48:09.670Z,2.20
2019-03-05T20:50:38.916Z,2.40
2019-03-05T20:53:08.135Z,2.50
2019-03-05T20:55:37.421Z,2.70
2019-03-05T20:58:06.954Z,2.30
2019-03-05T21:00:37.252Z,2.30
2019-03-05T21:03:06.662Z,2.17
2019-03-05T21:05:42.382Z,2.10
2019-03-05T21:08:11.621Z,2.17
2019-03-05T21:10:41.097Z,1.90
2019-03-05T21:13:11.123Z,2.00
2019-03-05T21:15:41.104Z,1.97
2019-03-05T21:18:10.529Z,2.10
2019-03-05T21:20:39.758Z,2.17
2019-03-05T21:23:08.994Z,2.43
2019-03-05T21:25:38.228Z,2.30
2019-03-05T21:28:07.462Z,2.20
2019-03-05T21:30:36.982Z,2.20
2019-03-05T21:33:08.624Z,2.03
2019-03-05T21:35:39.679Z,2.40
2019-03-05T21:38:08.924Z,2.70
2019-03-05T21:40:38.149Z,2.67
2019-03-05T21:43:07.728Z,2.80
2019-03-05T21:45:40.602Z,2.57
2019-03-05T21:48:09.855Z,2.77
2019-03-05T21:50:39.073Z,2.83
2019-03-05T21:53:08.417Z,2.37
2019-03-05T21:55:40.682Z,2.47
2019-03-05T21:58:10.303Z,2.70
2019-03-05T22:00:39.852Z,2.60
2019-03-05T22:03:09.090Z,2.73
2019-03-05T22:05:38.338Z,2.93
2019-03-05T22:08:07.601Z,3.10
2019-03-05T22:10:37.165Z,3.50
2019-03-05T22:13:06.448Z,3.40
2019-03-05T22:15:38.257Z,3.50
2019-03-05T22:18:07.979Z,3.43
2019-03-05T22:20:37.192Z,3.60
2019-03-05T22:23:06.911Z,3.20
2019-03-05T22:25:36.138Z,3.60
2019-03-05T22:28:05.825Z,3.20
2019-03-05T22:30:35.068Z,3.20
2019-03-05T22:33:04.903Z,3.10
2019-03-05T22:35:34.146Z,2.97
2019-03-05T22:38:03.426Z,3.50
2019-03-05T22:40:32.768Z,3.70
2019-03-05T22:43:02.043Z,3.67
2019-03-05T22:45:33.443Z,3.20
2019-03-05T22:48:05.338Z,3.43
2019-03-05T22:50:34.581Z,3.17
2019-03-05T22:53:05.548Z,3.60
2019-03-05T22:55:35.466Z,3.57
2019-03-05T22:58:04.745Z,3.87
2019-03-05T23:01:11.855Z,3.83
2019-03-05T23:03:45.613Z,3.83
2019-03-05T23:06:15.410Z,3.80
2019-03-05T23:08:44.658Z,3.80
2019-03-05T23:11:13.872Z,4.00
2019-03-05T23:13:43.817Z,3.90
2019-03-05T23:16:13.435Z,4.20
2019-03-05T23:18:43.002Z,4.10
2019-03-05T23:21:12.631Z,3.93
2019-03-05T23:23:41.891Z,4.00
2019-03-05T23:26:11.363Z,3.70
2019-03-05T23:28:40.757Z,3.63
2019-03-05T23:31:12.010Z,3.43
2019-03-05T23:33:41.710Z,3.93
2019-03-05T23:36:11.159Z,3.43
2019-03-05T23:38:40.383Z,3.70
2019-03-05T23:41:09.633Z,3.70
2019-03-05T23:43:38.896Z,3.97
2019-03-05T23:46:08.140Z,3.90
2019-03-05T23:48:37.346Z,3.83
2019-03-05T23:51:07.833Z,3.67
2019-03-05T23:53:37.148Z,3.87
2019-03-05T23:56:07.674Z,3.47
2019-03-05T23:58:36.924Z,4.73
